Salluit Airport
CYZG : now visible

Airfield :











YOU CAN JOIN US ON...

 
LOGIN :

Register | Disclaimer

   EN    FR    IT 

 









Legend :    VFR   Marginal VFR   IFR   Intensive IFR   Very Intensive IFR
Visi :
Ceiling :
>= 8 km
>= 3000ft
5 to 8 km
1000 to 3000 ft
1500m to 5 km
500 to 1000 ft
800 to 1500m
200 to 500 ft
< 800m
< 200 ft
Symbols :   Thunderstorms  Fog  Heavy snow  Heavy precipitations  Wind > 20 kt






- Airport Elevation : 743 ft
- IATA code : YZG


CYZG - Salluit

CURRENT METAR :
  • 172146Z 21026KT 1 1/2SM IC BLSN FEW008 SCT022 BKN037 BKN050 M30/M34 A2954 RMK ST1SC2SC3SC1 SLP042

EXPIRED METARs :
  • 172100Z 21025KT 2SM IC BLSN FEW008 FEW024 BKN038 BKN056 M30/M34 A2953 RMK ST1SC1SC3SC2 VIS N 5 SLP039
  • 172044Z 22026G32KT 1 1/2SM IC BLSN FEW009 SCT023 BKN036 BKN056 M30/M34 A2952 RMK ST1SC2SC2SC2 SLP038
  • 172000Z 22027KT 1/2SM IC BLSN FEW008 SCT021 BKN030 BKN044 BKN055 M29/M34 A2951 RMK ST1SC2SC3SC1SC1 SC TR VIS VRB 3/8-5/8 PRESRR SLP032
  • 171900Z 21031KT 3/8SM IC BLSN SCT010 BKN025 BKN035 OVC045 M29/M33 A2948 RMK BLSN2ST1SC2SC2SC1 VIS VRB 1/4-1/2 SLP023
  • 171850Z 21032KT 1/2SM IC BLSN SCT010 BKN024 BKN035 OVC045 M29/M34 A2948 RMK BLSN2ST1SC2SC2SC1 PRESRR SLP022

Expired Forecast.



MET'MAP, your aeronautical weather chart ! - Copyright ORBIFLY December 2007 - Disclaimer

ORBIFLY MET'MAP TEAM :

Programming & Development : Alexandra Zaïnal
Concept & original design : Baudouin d'Aumeries
Assistance for programming : Marc-Olivier Méhu
Technical & hardware support : Manuel Goepfert

Contact : metmap@orbifly.com




SOURCES & CREDITS :

   NOAA       Earth
Advisory